Time;durP1;ratioP1;P1;durP2;ratioP2;P2;SDS_P1;SDS_P2;PMS_P1;PMS_P2;Temp;Humidity;BMP_temperature;BMP_pressure;BME280_temperature;BME280_humidity;BME280_pressure;Samples;Min_cycle;Max_cycle;Signal;HPM_P1;HPM_P2
2023/09/14 00:02:22;;;;;;;996.10;909.57;;;11.60;99.90;;;;;;5053913;28;20455;-73
2023/09/14 00:04:49;;;;;;;980.53;893.77;;;11.60;99.90;;;;;;5053850;28;20452;-73
2023/09/14 00:07:15;;;;;;;985.90;898.90;;;11.60;99.90;;;;;;5053603;28;20459;-73
2023/09/14 00:09:42;;;;;;;983.43;897.13;;;11.60;99.90;;;;;;5053415;28;20444;-73
2023/09/14 00:12:09;;;;;;;989.40;902.90;;;11.50;99.90;;;;;;5053430;28;20457;-74
2023/09/14 00:14:37;;;;;;;990.70;903.63;;;11.50;99.90;;;;;;5053661;28;20447;-72
2023/09/14 00:17:06;;;;;;;995.50;907.67;;;11.50;99.90;;;;;;5053602;28;20448;-74
2023/09/14 00:19:32;;;;;;;981.57;891.60;;;11.50;99.90;;;;;;5053091;28;20447;-73
2023/09/14 00:21:59;;;;;;;983.10;892.90;;;11.60;99.90;;;;;;5053332;28;20462;-73
2023/09/14 00:24:26;;;;;;;981.67;891.53;;;11.60;99.90;;;;;;5053230;28;20953;-73
2023/09/14 00:26:53;;;;;;;978.23;888.80;;;11.70;99.90;;;;;;5053248;28;20933;-73
2023/09/14 00:29:20;;;;;;;985.67;895.80;;;11.60;99.90;;;;;;5053139;28;20454;-73
2023/09/14 00:31:48;;;;;;;978.10;887.80;;;11.60;99.90;;;;;;5053323;28;20454;-73
2023/09/14 00:34:14;;;;;;;981.40;891.90;;;11.50;99.90;;;;;;5053217;28;20459;-72
2023/09/14 00:36:41;;;;;;;975.37;885.47;;;11.50;99.90;;;;;;5053054;28;20969;-73
2023/09/14 00:39:10;;;;;;;977.13;887.90;;;11.60;99.90;;;;;;5052747;28;20461;-73
2023/09/14 00:41:37;;;;;;;980.17;890.00;;;11.60;99.90;;;;;;5053066;28;20483;-73
2023/09/14 00:44:04;;;;;;;965.60;876.37;;;11.60;99.90;;;;;;5052900;28;20459;-73
2023/09/14 00:46:31;;;;;;;973.60;884.00;;;11.70;99.90;;;;;;5052878;28;20451;-73
2023/09/14 00:49:01;;;;;;;968.20;879.03;;;11.60;99.90;;;;;;5052674;28;20451;-73
2023/09/14 00:51:29;;;;;;;974.17;884.43;;;11.60;99.90;;;;;;5052768;28;20457;-73
2023/09/14 00:53:58;;;;;;;974.23;884.13;;;11.60;99.90;;;;;;5052676;28;20931;-73
2023/09/14 00:56:27;;;;;;;983.17;892.27;;;11.50;99.90;;;;;;5052707;28;20455;-73
2023/09/14 00:58:55;;;;;;;979.27;888.50;;;11.40;99.90;;;;;;5052428;28;20447;-72
2023/09/14 01:01:22;;;;;;;985.00;894.57;;;11.40;99.90;;;;;;5052785;28;20552;-72
2023/09/14 01:03:50;;;;;;;980.40;890.03;;;11.30;99.90;;;;;;5052790;28;20454;-72
2023/09/14 01:06:18;;;;;;;974.00;883.97;;;11.40;99.90;;;;;;5052442;28;20477;-72
2023/09/14 01:08:45;;;;;;;968.73;878.20;;;11.40;99.90;;;;;;5052553;28;20455;-72
2023/09/14 01:11:12;;;;;;;966.47;875.93;;;11.60;99.90;;;;;;5052454;28;20459;-72
2023/09/14 01:13:49;;;;;;;967.83;878.43;;;11.70;99.90;;;;;;5052572;28;20447;-72
2023/09/14 01:16:24;;;;;;;970.60;880.20;;;11.80;99.90;;;;;;5052492;28;20489;-72
2023/09/14 01:18:59;;;;;;;968.57;878.57;;;11.70;99.90;;;;;;5052113;28;20454;-72
2023/09/14 01:21:52;;;;;;;972.13;881.43;;;11.50;99.90;;;;;;5052601;28;20489;-72
2023/09/14 01:24:33;;;;;;;970.67;880.13;;;11.40;99.90;;;;;;5052524;28;20451;-72
2023/09/14 01:27:02;;;;;;;981.60;890.50;;;11.30;99.90;;;;;;5052232;28;20542;-72
2023/09/14 01:29:30;;;;;;;983.50;892.40;;;11.30;99.90;;;;;;5052154;28;20555;-72
2023/09/14 01:31:57;;;;;;;985.40;894.20;;;11.30;99.90;;;;;;5052380;28;20443;-72
2023/09/14 01:34:24;;;;;;;987.37;895.70;;;11.20;99.90;;;;;;5052055;28;20455;-72
2023/09/14 01:36:56;;;;;;;990.97;899.17;;;11.20;99.90;;;;;;5052188;28;20818;-72
2023/09/14 01:39:25;;;;;;;990.53;898.10;;;11.00;99.90;;;;;;5051848;28;20469;-72
2023/09/14 01:41:55;;;;;;;980.43;888.00;;;11.00;99.90;;;;;;5051950;28;21003;-71
2023/09/14 01:44:25;;;;;;;971.27;878.50;;;11.00;99.90;;;;;;5052287;28;20486;-71
2023/09/14 01:46:52;;;;;;;976.07;883.37;;;11.00;99.90;;;;;;5052005;28;20451;-72
2023/09/14 01:49:19;;;;;;;964.40;872.20;;;11.00;99.90;;;;;;5051813;28;20455;-71
2023/09/14 01:51:46;;;;;;;964.53;872.93;;;11.00;99.90;;;;;;5051998;28;20452;-72
2023/09/14 01:54:13;;;;;;;967.43;875.40;;;11.00;99.90;;;;;;5052695;28;20458;-71
2023/09/14 01:56:41;;;;;;;965.73;874.30;;;11.00;99.90;;;;;;5056090;28;20465;-71
2023/09/14 01:59:08;;;;;;;971.03;879.37;;;11.00;99.90;;;;;;5055993;28;20451;-71
2023/09/14 02:01:36;;;;;;;969.90;878.63;;;11.00;99.90;;;;;;5056010;28;20487;-71
2023/09/14 02:04:03;;;;;;;978.33;885.73;;;11.00;99.90;;;;;;5055973;28;20542;-71
2023/09/14 02:06:50;;;;;;;971.90;879.77;;;10.90;99.90;;;;;;5055881;28;20451;-71
2023/09/14 02:09:17;;;;;;;968.87;877.27;;;10.90;99.90;;;;;;5054866;28;20451;-71
2023/09/14 02:11:44;;;;;;;979.87;886.67;;;10.90;99.90;;;;;;5055642;28;20462;-71
2023/09/14 02:14:11;;;;;;;974.07;882.87;;;10.80;99.90;;;;;;5056060;28;20514;-71
2023/09/14 02:16:39;;;;;;;982.83;883.97;;;10.80;99.90;;;;;;5055705;28;20455;-71
2023/09/14 02:19:06;;;;;;;976.90;882.00;;;10.90;99.90;;;;;;5055461;28;20458;-71
2023/09/14 02:21:33;;;;;;;981.00;888.90;;;10.90;99.90;;;;;;5055636;28;20475;-71
2023/09/14 02:24:00;;;;;;;977.37;885.57;;;10.80;99.90;;;;;;5055514;28;20737;-71
2023/09/14 02:26:27;;;;;;;966.97;876.03;;;10.80;99.90;;;;;;5055584;28;20447;-71
2023/09/14 02:28:54;;;;;;;966.27;876.70;;;10.70;99.90;;;;;;5055500;28;20823;-71
2023/09/14 02:31:20;;;;;;;970.60;880.60;;;10.70;99.90;;;;;;5055557;28;20470;-71
2023/09/14 02:33:48;;;;;;;971.10;879.60;;;10.80;99.90;;;;;;5054938;28;20458;-71
2023/09/14 02:36:15;;;;;;;959.70;870.00;;;10.90;99.90;;;;;;5055397;28;20660;-71
2023/09/14 02:38:44;;;;;;;956.27;866.97;;;10.90;99.90;;;;;;5055394;28;20455;-71
2023/09/14 02:41:10;;;;;;;972.00;882.53;;;10.90;99.90;;;;;;5055546;28;20577;-71
2023/09/14 02:43:37;;;;;;;970.67;881.10;;;10.90;99.90;;;;;;5055702;28;20447;-71
2023/09/14 02:46:04;;;;;;;973.13;883.90;;;10.90;99.90;;;;;;5055299;28;20447;-70
2023/09/14 02:48:31;;;;;;;973.37;883.60;;;10.80;99.90;;;;;;5054950;28;20448;-70
2023/09/14 02:50:59;;;;;;;963.70;874.03;;;10.70;99.90;;;;;;5054939;28;20443;-71
2023/09/14 02:53:26;;;;;;;960.03;869.87;;;10.60;99.90;;;;;;5055255;28;20833;-71
2023/09/14 02:55:53;;;;;;;955.50;865.13;;;10.60;99.90;;;;;;5055167;28;20447;-70
2023/09/14 02:58:20;;;;;;;955.63;865.60;;;10.60;99.90;;;;;;5054994;28;20451;-71
2023/09/14 03:00:47;;;;;;;958.87;869.13;;;10.60;99.90;;;;;;5054657;28;20475;-70
2023/09/14 03:03:13;;;;;;;947.93;859.00;;;10.60;99.90;;;;;;5054756;28;20455;-70
2023/09/14 03:05:40;;;;;;;941.77;853.07;;;10.60;99.90;;;;;;5053766;28;20447;-70
2023/09/14 03:08:08;;;;;;;932.13;843.80;;;10.60;99.90;;;;;;5054929;28;20447;-70
2023/09/14 03:10:35;;;;;;;947.63;859.00;;;10.50;99.90;;;;;;5054385;28;20973;-70
2023/09/14 03:13:02;;;;;;;946.83;858.10;;;10.50;99.90;;;;;;5054821;28;20451;-70
2023/09/14 03:15:29;;;;;;;936.63;847.40;;;10.50;99.90;;;;;;5054630;28;20526;-71
2023/09/14 03:17:56;;;;;;;940.87;851.47;;;10.50;99.90;;;;;;5054470;28;20461;-70
2023/09/14 03:20:23;;;;;;;945.03;855.53;;;10.40;99.90;;;;;;5054283;28;20953;-70
2023/09/14 03:22:50;;;;;;;940.80;851.53;;;10.40;99.90;;;;;;5054666;28;20512;-71
2023/09/14 03:25:18;;;;;;;949.93;860.13;;;10.40;99.90;;;;;;5054610;28;20582;-70
2023/09/14 03:27:45;;;;;;;934.20;845.00;;;10.40;99.90;;;;;;5054468;28;20448;-70
2023/09/14 03:30:12;;;;;;;932.07;843.40;;;10.40;99.90;;;;;;5053895;28;20540;-70
2023/09/14 03:32:39;;;;;;;947.67;859.17;;;10.30;99.90;;;;;;5054261;28;20448;-71
2023/09/14 03:35:06;;;;;;;938.77;848.47;;;10.20;99.90;;;;;;5054528;28;20537;-70
2023/09/14 03:37:33;;;;;;;940.43;849.03;;;10.30;99.90;;;;;;5054376;28;20813;-70
2023/09/14 03:40:00;;;;;;;952.57;861.47;;;10.20;99.90;;;;;;5053968;28;20457;-70
2023/09/14 03:42:30;;;;;;;949.07;859.00;;;10.30;99.90;;;;;;5054073;28;20860;-70
2023/09/14 03:44:57;;;;;;;944.83;855.10;;;10.20;99.90;;;;;;5054425;28;20451;-70
2023/09/14 03:47:24;;;;;;;945.70;855.70;;;10.20;99.90;;;;;;5054085;28;20458;-70
2023/09/14 03:49:50;;;;;;;953.17;862.87;;;10.20;99.90;;;;;;5054020;28;20448;-70
2023/09/14 03:52:17;;;;;;;948.67;858.37;;;10.10;99.90;;;;;;5053929;28;20447;-70
2023/09/14 03:54:45;;;;;;;956.60;865.23;;;10.00;99.90;;;;;;5054109;28;20454;-70
2023/09/14 03:57:14;;;;;;;946.20;856.00;;;9.90;99.90;;;;;;5053764;28;20451;-70
2023/09/14 03:59:42;;;;;;;955.67;865.03;;;9.90;99.90;;;;;;5053852;28;20447;-70
2023/09/14 04:02:10;;;;;;;960.83;869.47;;;9.90;99.90;;;;;;5053824;28;20490;-70
2023/09/14 04:04:40;;;;;;;965.80;875.50;;;9.80;99.90;;;;;;5052930;28;20550;-70
2023/09/14 04:07:07;;;;;;;962.07;871.27;;;9.80;99.90;;;;;;5053623;28;20502;-70
2023/09/14 04:09:34;;;;;;;971.47;879.97;;;9.70;99.90;;;;;;5045940;28;20470;-70
2023/09/14 04:12:01;;;;;;;956.17;865.03;;;9.70;99.90;;;;;;5052346;28;20451;-70
2023/09/14 04:14:27;;;;;;;955.23;864.20;;;9.80;99.90;;;;;;5052914;28;20447;-70
2023/09/14 04:16:57;;;;;;;948.27;857.53;;;9.80;99.90;;;;;;5052589;28;20450;-70
2023/09/14 04:19:24;;;;;;;945.20;854.80;;;9.80;99.90;;;;;;5053209;28;20526;-69
2023/09/14 04:21:51;;;;;;;964.30;873.47;;;9.70;99.90;;;;;;5053097;28;20835;-69
2023/09/14 04:24:18;;;;;;;970.70;879.10;;;9.70;99.90;;;;;;5053162;28;20447;-69
2023/09/14 04:26:45;;;;;;;970.13;878.17;;;9.60;99.90;;;;;;5053415;28;21079;-69
2023/09/14 04:29:12;;;;;;;969.27;876.97;;;9.60;99.90;;;;;;5032595;28;20971;-71
2023/09/14 04:31:40;;;;;;;984.37;888.97;;;9.70;99.90;;;;;;5032937;28;20812;-71
2023/09/14 04:34:09;;;;;;;970.30;876.07;;;9.70;99.90;;;;;;5032984;28;20448;-71
2023/09/14 04:36:37;;;;;;;968.00;875.07;;;9.80;99.90;;;;;;5033124;28;20481;-71
2023/09/14 04:39:04;;;;;;;970.10;877.03;;;9.80;99.90;;;;;;5032607;28;20459;-70
2023/09/14 04:41:31;;;;;;;978.77;886.13;;;9.80;99.90;;;;;;5032895;28;21010;-71
2023/09/14 04:43:58;;;;;;;957.17;864.17;;;9.80;99.90;;;;;;5032915;28;20452;-71
2023/09/14 04:46:25;;;;;;;939.33;847.70;;;9.80;99.90;;;;;;5033077;28;20834;-71
2023/09/14 04:48:52;;;;;;;953.47;860.33;;;9.80;99.90;;;;;;5032418;28;20456;-70
2023/09/14 04:51:21;;;;;;;950.17;857.60;;;9.80;99.90;;;;;;5032799;28;20510;-70
2023/09/14 04:53:48;;;;;;;959.70;868.20;;;9.80;99.90;;;;;;5032722;28;20455;-72
2023/09/14 04:56:15;;;;;;;954.33;861.90;;;9.70;99.90;;;;;;5033165;28;20456;-71
2023/09/14 04:58:42;;;;;;;962.93;870.10;;;9.60;99.90;;;;;;5032770;28;20459;-71
2023/09/14 05:01:08;;;;;;;970.07;877.10;;;9.60;99.90;;;;;;5032337;28;20456;-71
2023/09/14 05:03:35;;;;;;;951.90;859.27;;;9.60;99.90;;;;;;5034546;28;20456;-71
2023/09/14 05:06:03;;;;;;;958.70;866.10;;;9.50;99.90;;;;;;5052222;28;20460;-71
2023/09/14 05:08:31;;;;;;;963.53;868.13;;;9.50;99.90;;;;;;5052454;28;20514;-71
2023/09/14 05:10:58;;;;;;;962.30;867.37;;;9.60;99.90;;;;;;5052203;28;20455;-70
2023/09/14 05:13:25;;;;;;;964.77;869.20;;;9.60;99.90;;;;;;5052435;28;20554;-70
2023/09/14 05:15:52;;;;;;;961.23;865.97;;;9.70;99.90;;;;;;5052343;28;20447;-70
2023/09/14 05:18:19;;;;;;;965.17;870.57;;;9.70;99.90;;;;;;5051954;28;20908;-70
2023/09/14 05:20:48;;;;;;;960.60;866.37;;;9.80;99.90;;;;;;5051281;28;20500;-70
2023/09/14 05:23:18;;;;;;;964.13;869.90;;;9.80;99.90;;;;;;5052040;28;21010;-70
2023/09/14 05:25:46;;;;;;;964.93;870.40;;;10.00;99.90;;;;;;5052040;28;20447;-72
2023/09/14 05:28:14;;;;;;;984.37;887.33;;;9.90;99.90;;;;;;5051045;28;20473;-72
2023/09/14 05:30:41;;;;;;;981.67;884.73;;;9.90;99.90;;;;;;5050148;28;20451;-72
2023/09/14 05:33:09;;;;;;;982.97;882.97;;;10.00;99.90;;;;;;5051792;28;20538;-72
2023/09/14 05:35:36;;;;;;;1044.17;930.40;;;10.00;99.90;;;;;;5052213;28;20451;-72
2023/09/14 05:38:03;;;;;;;1051.30;937.70;;;10.00;99.90;;;;;;5051878;28;20491;-72
2023/09/14 05:40:31;;;;;;;1052.03;936.27;;;10.00;99.90;;;;;;5051076;28;20455;-72
2023/09/14 05:43:00;;;;;;;1070.67;937.63;;;9.90;99.90;;;;;;5051299;28;20471;-71
2023/09/14 05:45:26;;;;;;;1053.70;932.97;;;10.10;99.90;;;;;;5051887;28;20460;-72
2023/09/14 05:47:53;;;;;;;1046.60;930.97;;;10.20;99.90;;;;;;5051816;28;20451;-71
2023/09/14 05:50:20;;;;;;;1046.83;932.20;;;10.20;99.90;;;;;;5051735;28;20955;-71
2023/09/14 05:52:47;;;;;;;1049.00;936.17;;;10.40;99.90;;;;;;5051808;28;20450;-72
2023/09/14 05:55:14;;;;;;;1034.93;923.30;;;10.50;99.90;;;;;;5051715;28;20554;-73
2023/09/14 05:57:40;;;;;;;1038.27;924.27;;;10.40;99.90;;;;;;5051730;28;20451;-72
2023/09/14 06:00:12;;;;;;;1047.70;934.20;;;10.50;99.90;;;;;;5049842;28;20460;-71
2023/09/14 06:02:40;;;;;;;1047.70;932.80;;;10.50;99.90;;;;;;5051428;28;20475;-72
2023/09/14 06:05:08;;;;;;;1056.97;940.87;;;10.60;99.90;;;;;;5051668;28;20452;-72
2023/09/14 06:07:35;;;;;;;1063.70;937.77;;;10.60;99.90;;;;;;5051402;28;20960;-72
2023/09/14 06:10:02;;;;;;;1073.30;944.30;;;10.70;99.90;;;;;;5051102;28;20451;-72
2023/09/14 06:12:29;;;;;;;1076.67;929.47;;;10.80;99.90;;;;;;5051418;28;20504;-72
2023/09/14 06:14:56;;;;;;;1081.87;938.60;;;10.90;99.90;;;;;;5051456;28;20447;-72
2023/09/14 06:17:24;;;;;;;1074.57;940.73;;;10.90;99.90;;;;;;5051861;28;20455;-74
2023/09/14 06:19:51;;;;;;;1077.45;931.30;;;11.00;99.90;;;;;;5051144;28;20455;-72
2023/09/14 06:22:18;;;;;;;1141.88;953.97;;;11.20;99.90;;;;;;5050527;28;20451;-72
2023/09/14 06:24:45;;;;;;;1145.68;941.97;;;11.30;99.90;;;;;;5051073;28;20452;-72
2023/09/14 06:27:12;;;;;;;1107.70;932.97;;;11.40;99.90;;;;;;5051558;28;20201;-72
2023/09/14 06:29:39;;;;;;;1101.80;934.07;;;11.50;99.90;;;;;;5051307;28;20948;-72
2023/09/14 06:32:06;;;;;;;1100.90;926.40;;;11.60;99.90;;;;;;5051761;28;20450;-72
2023/09/14 06:34:34;;;;;;;1092.33;930.00;;;11.70;99.90;;;;;;5051625;28;20919;-72
2023/09/14 06:37:01;;;;;;;1103.73;934.60;;;11.90;99.90;;;;;;5051735;28;20618;-72
2023/09/14 06:39:28;;;;;;;1093.97;932.00;;;12.00;99.90;;;;;;5051268;28;20455;-72
2023/09/14 06:41:55;;;;;;;1099.10;926.80;;;12.10;99.90;;;;;;5054850;28;20475;-72
2023/09/14 06:44:23;;;;;;;1090.17;927.20;;;12.20;99.90;;;;;;5055444;28;20829;-72
2023/09/14 06:46:50;;;;;;;1059.47;918.37;;;12.40;99.90;;;;;;5055187;28;20455;-71
2023/09/14 06:49:17;;;;;;;1069.97;919.23;;;12.60;99.90;;;;;;5054904;28;20942;-72
2023/09/14 06:51:45;;;;;;;1076.63;902.83;;;12.80;99.90;;;;;;5055128;28;20453;-72
2023/09/14 06:54:12;;;;;;;1074.10;907.43;;;12.90;99.90;;;;;;5055054;28;20482;-72
2023/09/14 06:56:39;;;;;;;1096.83;913.77;;;13.00;99.90;;;;;;5054964;28;20451;-71
2023/09/14 06:59:06;;;;;;;1109.50;916.27;;;13.20;99.90;;;;;;5054900;28;20452;-72
2023/09/14 07:01:33;;;;;;;1120.67;902.90;;;13.30;99.90;;;;;;5054852;28;20454;-72
2023/09/14 07:04:00;;;;;;;1135.80;907.07;;;13.50;99.90;;;;;;5054908;28;20455;-72
2023/09/14 07:06:27;;;;;;;1141.47;901.27;;;13.60;99.90;;;;;;5054890;28;20478;-72
2023/09/14 07:08:55;;;;;;;1148.20;888.40;;;13.80;99.90;;;;;;5054553;28;20447;-72
2023/09/14 07:11:22;;;;;;;1153.20;886.60;;;14.00;99.90;;;;;;5054695;28;20482;-72
2023/09/14 07:13:49;;;;;;;1151.90;891.13;;;14.10;99.90;;;;;;5054864;28;20444;-72
2023/09/14 07:16:16;;;;;;;1146.53;886.33;;;14.10;99.90;;;;;;5054800;28;20917;-72
2023/09/14 07:18:42;;;;;;;1147.90;891.60;;;14.30;99.90;;;;;;5054634;28;20478;-71
2023/09/14 07:21:09;;;;;;;1151.90;889.90;;;14.60;99.90;;;;;;5054492;28;20458;-71
2023/09/14 07:23:36;;;;;;;1133.67;899.30;;;14.70;99.90;;;;;;5054294;28;20483;-72
2023/09/14 07:26:07;;;;;;;1140.00;887.27;;;14.80;99.90;;;;;;5054734;28;20826;-72
2023/09/14 07:28:34;;;;;;;1146.87;895.90;;;14.70;99.90;;;;;;5054533;28;20477;-72
2023/09/14 07:31:04;;;;;;;1124.47;883.07;;;14.90;99.90;;;;;;5054340;28;20448;-72
2023/09/14 07:33:31;;;;;;;1118.93;877.97;;;15.10;99.90;;;;;;5054142;28;20962;-74
2023/09/14 07:35:58;;;;;;;1118.47;876.33;;;15.30;99.90;;;;;;5045999;28;20458;-72
2023/09/14 07:38:25;;;;;;;1054.13;881.30;;;15.40;99.90;;;;;;5036077;28;20934;-72
2023/09/14 07:40:51;;;;;;;1027.70;892.67;;;15.60;99.90;;;;;;5033074;28;20553;-72
2023/09/14 07:43:20;;;;;;;1032.37;903.47;;;15.50;99.90;;;;;;5034004;28;20481;-73
2023/09/14 07:45:46;;;;;;;1031.90;888.43;;;15.60;99.90;;;;;;5034261;28;20450;-73
2023/09/14 07:48:13;;;;;;;1006.70;879.27;;;15.70;99.90;;;;;;5034116;28;20454;-73
2023/09/14 07:50:41;;;;;;;997.07;877.43;;;15.90;99.90;;;;;;5033796;28;20548;-73
2023/09/14 07:53:09;;;;;;;983.40;877.70;;;16.10;99.90;;;;;;5033425;28;20447;-73
2023/09/14 07:55:36;;;;;;;990.77;889.37;;;16.20;99.90;;;;;;5034070;28;20461;-73
2023/09/14 07:58:06;;;;;;;977.90;880.67;;;16.10;99.90;;;;;;5034007;28;20455;-73
2023/09/14 08:00:35;;;;;;;979.53;883.50;;;16.10;99.90;;;;;;5033732;28;20460;-73
2023/09/14 08:03:01;;;;;;;969.17;877.60;;;16.10;99.90;;;;;;5033771;28;21044;-73
2023/09/14 08:05:29;;;;;;;980.00;890.70;;;16.00;99.90;;;;;;5034044;28;20510;-73
2023/09/14 08:07:55;;;;;;;971.90;881.77;;;16.00;99.90;;;;;;5033791;28;20819;-73
2023/09/14 08:10:22;;;;;;;970.47;887.53;;;16.10;99.90;;;;;;5033254;28;20626;-73
2023/09/14 08:12:49;;;;;;;939.37;865.07;;;16.20;99.90;;;;;;5033624;28;20449;-73
2023/09/14 08:15:16;;;;;;;938.53;862.70;;;16.20;99.90;;;;;;5033730;28;20455;-73
2023/09/14 08:17:44;;;;;;;940.20;861.63;;;16.20;99.90;;;;;;5033466;28;20482;-73
2023/09/14 08:20:12;;;;;;;935.03;859.60;;;16.30;99.90;;;;;;5033318;28;20451;-73
2023/09/14 08:22:39;;;;;;;927.47;849.37;;;16.30;99.90;;;;;;5033512;28;20502;-73
2023/09/14 08:25:07;;;;;;;922.10;847.17;;;16.50;99.90;;;;;;5033564;28;20457;-73
2023/09/14 08:27:38;;;;;;;897.77;828.67;;;16.70;99.90;;;;;;5033387;28;20459;-73
2023/09/14 08:30:05;;;;;;;888.63;823.33;;;16.90;99.90;;;;;;5033198;28;20552;-73
2023/09/14 08:32:32;;;;;;;831.63;774.73;;;17.20;99.90;;;;;;5032917;28;20456;-73
2023/09/14 08:35:20;;;;;;;866.07;809.47;;;17.30;99.90;;;;;;5033226;28;20452;-73
2023/09/14 08:37:47;;;;;;;724.33;682.50;;;17.40;99.90;;;;;;5033153;28;20934;-73
2023/09/14 08:40:14;;;;;;;650.57;616.17;;;17.50;99.90;;;;;;5032924;28;20457;-73
2023/09/14 08:42:42;;;;;;;601.93;572.27;;;17.50;99.90;;;;;;5032978;28;20645;-73
2023/09/14 08:45:13;;;;;;;314.63;299.33;;;17.70;99.90;;;;;;5033297;28;20500;-73
2023/09/14 08:47:42;;;;;;;504.63;481.23;;;17.70;99.90;;;;;;5033137;28;20524;-73
2023/09/14 08:50:13;;;;;;;300.07;285.83;;;17.90;99.90;;;;;;5032860;28;20453;-74
2023/09/14 08:52:41;;;;;;;163.77;154.57;;;18.20;99.90;;;;;;5032937;28;20453;-74
2023/09/14 08:55:11;;;;;;;105.03;97.50;;;18.30;99.90;;;;;;5032775;28;21086;-73
2023/09/14 08:57:39;;;;;;;122.17;114.33;;;18.30;99.90;;;;;;5033050;28;20450;-73
2023/09/14 09:00:14;;;;;;;61.23;55.00;;;18.50;99.90;;;;;;5032572;28;20456;-74
2023/09/14 09:02:43;;;;;;;58.97;53.33;;;18.70;99.90;;;;;;5032674;28;20993;-74
2023/09/14 09:05:12;;;;;;;53.23;47.50;;;19.00;99.90;;;;;;5032752;28;20463;-73
2023/09/14 09:07:40;;;;;;;51.93;43.30;;;18.90;99.90;;;;;;5032523;28;20464;-74
2023/09/14 09:10:11;;;;;;;53.50;46.80;;;19.30;99.90;;;;;;5032500;28;20460;-75
2023/09/14 09:12:38;;;;;;;52.97;39.17;;;19.50;99.90;;;;;;5032797;28;20450;-73
2023/09/14 09:15:07;;;;;;;49.33;36.53;;;19.40;99.90;;;;;;5032584;28;20450;-75
2023/09/14 09:17:44;;;;;;;57.23;41.60;;;19.60;99.90;;;;;;5032611;28;20456;-75
2023/09/14 09:20:19;;;;;;;49.90;37.60;;;20.00;99.90;;;;;;5032205;28;20510;-74
2023/09/14 09:22:47;;;;;;;45.43;35.40;;;20.10;99.90;;;;;;5032567;28;20573;-74
2023/09/14 09:25:15;;;;;;;46.47;37.93;;;19.80;99.90;;;;;;5032433;28;20753;-75
2023/09/14 09:27:42;;;;;;;48.53;33.80;;;19.60;99.90;;;;;;5032525;28;20847;-72
2023/09/14 09:30:09;;;;;;;44.20;35.00;;;19.70;99.90;;;;;;5032181;28;20455;-73
2023/09/14 09:32:38;;;;;;;41.23;33.40;;;19.60;99.90;;;;;;5032178;28;20539;-75
2023/09/14 09:35:25;;;;;;;45.77;35.10;;;19.50;99.90;;;;;;5032516;28;20873;-74
2023/09/14 09:37:52;;;;;;;47.10;37.80;;;19.30;99.90;;;;;;5032332;28;20447;-73
2023/09/14 09:40:21;;;;;;;48.30;36.03;;;19.10;99.90;;;;;;5032017;28;20450;-75
2023/09/14 09:42:48;;;;;;;52.57;37.17;;;19.00;99.90;;;;;;5032145;28;20481;-75
2023/09/14 09:45:15;;;;;;;49.57;38.97;;;19.00;99.90;;;;;;5032183;28;20604;-72
2023/09/14 09:47:43;;;;;;;52.70;39.07;;;19.30;99.90;;;;;;5032365;28;20449;-74
2023/09/14 09:50:12;;;;;;;55.20;43.30;;;19.20;99.90;;;;;;5031986;28;20450;-75
2023/09/14 09:52:42;;;;;;;50.53;39.97;;;19.60;99.90;;;;;;5032163;28;20449;-74
2023/09/14 09:55:17;;;;;;;55.73;40.13;;;20.00;99.90;;;;;;5032401;28;20452;-74
2023/09/14 09:57:50;;;;;;;49.73;38.63;;;20.10;99.90;;;;;;5032266;28;20440;-73
2023/09/14 10:00:19;;;;;;;59.63;42.50;;;20.10;99.90;;;;;;5031869;28;20453;-74
2023/09/14 10:02:46;;;;;;;44.67;35.33;;;20.20;99.90;;;;;;5031858;28;20508;-76
2023/09/14 10:05:13;;;;;;;48.20;37.10;;;20.70;99.90;;;;;;5032057;28;20453;-76
2023/09/14 10:07:42;;;;;;;58.20;37.87;;;20.80;99.90;;;;;;5031816;28;20460;-75
2023/09/14 10:10:10;;;;;;;46.80;35.43;;;20.80;99.90;;;;;;5031438;28;20470;-76
2023/09/14 10:12:41;;;;;;;47.83;37.07;;;21.00;99.90;;;;;;5032150;28;20460;-72
2023/09/14 10:15:09;;;;;;;46.60;34.80;;;20.80;99.90;;;;;;5032869;28;20920;-74
2023/09/14 10:17:37;;;;;;;47.43;35.20;;;20.60;99.90;;;;;;5035939;28;20452;-75
2023/09/14 10:20:08;;;;;;;44.53;34.57;;;20.90;99.90;;;;;;5035738;28;20457;-76
2023/09/14 10:22:36;;;;;;;46.43;34.53;;;20.70;99.90;;;;;;5035549;28;20541;-76
2023/09/14 10:25:06;;;;;;;43.77;35.33;;;20.70;99.90;;;;;;5035932;28;20455;-76
2023/09/14 10:27:34;;;;;;;49.87;35.43;;;20.80;99.90;;;;;;5035606;28;20458;-73
2023/09/14 10:30:04;;;;;;;46.70;33.77;;;20.70;98.80;;;;;;5035380;28;20519;-76
2023/09/14 10:32:33;;;;;;;43.13;33.27;;;20.90;99.90;;;;;;5035564;28;20450;-73
2023/09/14 10:35:02;;;;;;;46.07;33.80;;;20.90;98.80;;;;;;5035433;28;20452;-73
2023/09/14 10:37:29;;;;;;;41.90;32.87;;;20.60;98.70;;;;;;5035668;28;20462;-74
2023/09/14 10:39:56;;;;;;;39.60;30.77;;;20.80;98.90;;;;;;5035310;28;20460;-75
2023/09/14 10:42:25;;;;;;;40.93;30.40;;;20.80;96.50;;;;;;5035545;28;20451;-76
2023/09/14 10:44:52;;;;;;;41.97;30.57;;;20.90;97.70;;;;;;5035315;28;20839;-74
2023/09/14 10:47:23;;;;;;;35.67;25.80;;;20.90;96.50;;;;;;5035259;28;20458;-73
2023/09/14 10:49:51;;;;;;;34.57;24.20;;;20.70;95.40;;;;;;5034958;28;20457;-74
2023/09/14 10:52:25;;;;;;;29.20;22.30;;;20.90;95.50;;;;;;5035337;28;20457;-76
2023/09/14 10:54:52;;;;;;;34.47;24.33;;;21.10;95.60;;;;;;5035205;28;20443;-73
2023/09/14 10:57:24;;;;;;;32.50;23.70;;;21.00;94.50;;;;;;5035222;28;20467;-75
2023/09/14 10:59:53;;;;;;;37.00;24.60;;;21.10;95.80;;;;;;5034891;28;20652;-76
2023/09/14 11:02:54;;;;;;;36.97;26.27;;;21.00;95.50;;;;;;5034958;28;20453;-73
2023/09/14 11:05:23;;;;;;;36.30;24.70;;;21.10;94.60;;;;;;5035129;28;20823;-74
2023/09/14 11:07:56;;;;;;;32.43;23.57;;;21.00;95.50;;;;;;5034771;28;20487;-76
2023/09/14 11:10:24;;;;;;;37.20;24.50;;;21.30;92.20;;;;;;5034516;28;20458;-76
2023/09/14 11:12:52;;;;;;;31.10;23.53;;;21.40;95.60;;;;;;5034824;28;20460;-76
2023/09/14 11:15:21;;;;;;;33.97;23.97;;;21.60;91.80;;;;;;5034976;28;20453;-76
2023/09/14 11:17:52;;;;;;;25.67;19.80;;;22.30;92.60;;;;;;5034847;28;20456;-74
2023/09/14 11:20:38;;;;;;;28.20;21.23;;;22.60;84.50;;;;;;5034502;28;20491;-72
2023/09/14 11:23:07;;;;;;;25.33;17.70;;;23.00;72.80;;;;;;5035008;28;20816;-73
2023/09/14 11:25:36;;;;;;;20.77;16.93;;;23.70;65.20;;;;;;5034771;28;20561;-74
2023/09/14 11:28:05;;;;;;;21.70;16.77;;;23.90;56.90;;;;;;5033511;28;20456;-76
2023/09/14 11:30:33;;;;;;;22.10;16.50;;;24.00;57.00;;;;;;5034377;28;20542;-76
2023/09/14 11:33:03;;;;;;;21.57;16.67;;;23.80;56.80;;;;;;5034388;28;20452;-75
2023/09/14 11:35:34;;;;;;;21.03;13.73;;;23.40;47.60;;;;;;5034371;28;20821;-76
2023/09/14 11:38:02;;;;;;;16.43;12.63;;;23.70;52.50;;;;;;5034320;28;20454;-76
2023/09/14 11:40:33;;;;;;;14.27;11.10;;;23.80;55.60;;;;;;5034373;28;20510;-74
2023/09/14 11:43:22;;;;;;;14.27;10.10;;;24.00;43.60;;;;;;5034628;28;20486;-76
2023/09/14 11:45:50;;;;;;;17.40;10.63;;;23.90;40.20;;;;;;5034211;28;20498;-76
2023/09/14 11:48:18;;;;;;;14.10;9.83;;;24.30;43.40;;;;;;5034430;28;20456;-74
2023/09/14 11:50:47;;;;;;;12.93;9.90;;;24.50;34.00;;;;;;5034119;28;20452;-73
2023/09/14 11:53:17;;;;;;;13.10;9.40;;;24.00;29.90;;;;;;5034245;28;20803;-76
2023/09/14 11:55:44;;;;;;;12.13;8.53;;;24.40;30.10;;;;;;5034154;28;20454;-75
2023/09/14 11:58:11;;;;;;;14.70;11.53;;;24.50;31.10;;;;;;5034053;28;20452;-77
2023/09/14 12:00:42;;;;;;;13.20;9.90;;;24.40;28.40;;;;;;5034179;28;20463;-76
2023/09/14 12:03:09;;;;;;;14.27;9.27;;;24.00;26.30;;;;;;5033880;28;20944;-76
2023/09/14 12:05:37;;;;;;;12.90;8.87;;;24.90;30.60;;;;;;5033799;28;20462;-76
2023/09/14 12:08:11;;;;;;;14.30;10.40;;;24.90;25.50;;;;;;5033779;28;20963;-76
2023/09/14 12:10:38;;;;;;;13.00;9.23;;;24.50;27.30;;;;;;5033511;28;20641;-76
2023/09/14 12:13:12;;;;;;;11.43;8.40;;;24.40;22.90;;;;;;5033588;28;20455;-76
2023/09/14 12:15:42;;;;;;;14.40;9.40;;;24.90;23.20;;;;;;5033975;28;20507;-75
2023/09/14 12:18:10;;;;;;;14.27;11.80;;;24.60;19.20;;;;;;5033735;28;20448;-74
2023/09/14 12:20:39;;;;;;;12.83;9.23;;;24.10;26.50;;;;;;5033405;28;20444;-74